Terminal Aerodrome Forecast
Issued by NWS

Home | Current Version | Previous Version | Text Only | Print | Product List | Glossary On
Versions: 1 2 3 4 5 6 7 8 9 10 11 12 13 14
645
FTUS45 KVEF 242320
TAFBIH
TAF
KBIH 242320Z 2500/2524 27012KT P6SM SCT140 BKN250
     FM250300 34009KT P6SM BKN200
     FM251800 VRB05KT P6SM SCT140=

USA.gov is the U.S. government's official web portal to all federal, state and local government web resources and services.